createdAt,value
2022-11-16T00:01:26.390Z,14.13
2022-11-16T00:03:54.613Z,13.95
2022-11-16T00:06:22.363Z,13.65
2022-11-16T00:09:10.348Z,13.50
2022-11-16T00:11:38.060Z,13.64
2022-11-16T00:14:05.664Z,13.65
2022-11-16T00:16:32.717Z,13.98
2022-11-16T00:19:02.704Z,14.17
2022-11-16T00:21:29.915Z,13.60
2022-11-16T00:23:56.584Z,14.07
2022-11-16T00:26:24.011Z,13.58
2022-11-16T00:28:52.634Z,13.45
2022-11-16T00:31:19.400Z,13.55
2022-11-16T00:33:46.557Z,13.31
2022-11-16T00:36:13.898Z,13.58
2022-11-16T00:38:41.364Z,13.51
2022-11-16T00:41:09.009Z,13.72
2022-11-16T00:43:36.640Z,13.92
2022-11-16T00:46:04.230Z,13.73
2022-11-16T00:48:31.730Z,13.88
2022-11-16T00:50:58.500Z,13.63
2022-11-16T00:53:24.976Z,13.37
2022-11-16T00:55:51.624Z,13.53
2022-11-16T00:58:18.148Z,13.69
2022-11-16T01:00:44.755Z,13.17
2022-11-16T01:03:11.281Z,13.03
2022-11-16T01:05:38.186Z,13.03
2022-11-16T01:08:05.029Z,13.27
2022-11-16T01:10:31.781Z,13.19
2022-11-16T01:12:58.650Z,13.56
2022-11-16T01:15:27.363Z,13.21
2022-11-16T01:17:55.713Z,13.43
2022-11-16T01:20:25.276Z,13.38
2022-11-16T01:22:52.573Z,13.18
2022-11-16T01:25:19.985Z,13.32
2022-11-16T01:27:46.654Z,13.65
2022-11-16T01:30:14.621Z,13.33
2022-11-16T01:32:41.145Z,13.43
2022-11-16T01:35:08.195Z,13.48
2022-11-16T01:37:34.764Z,13.05
2022-11-16T01:40:01.310Z,13.15
2022-11-16T01:42:29.940Z,12.87
2022-11-16T01:45:07.056Z,13.01
2022-11-16T01:47:33.655Z,13.14
2022-11-16T01:50:14.399Z,12.90
2022-11-16T01:52:47.691Z,12.70
2022-11-16T01:55:14.438Z,13.22
2022-11-16T01:57:43.738Z,12.97
2022-11-16T02:00:12.351Z,13.22
2022-11-16T02:02:38.928Z,13.13
2022-11-16T02:05:06.569Z,13.42
2022-11-16T02:08:22.198Z,13.15
2022-11-16T02:11:19.481Z,13.24
2022-11-16T02:14:03.958Z,12.89
2022-11-16T02:16:38.508Z,13.31
2022-11-16T02:19:28.007Z,12.78
2022-11-16T02:22:22.278Z,13.12
2022-11-16T02:24:54.857Z,13.13
2022-11-16T02:27:52.597Z,12.83
2022-11-16T02:30:20.957Z,13.03
2022-11-16T02:32:57.354Z,12.73
2022-11-16T02:35:44.605Z,12.88
2022-11-16T02:38:15.202Z,12.96
2022-11-16T02:40:46.578Z,13.15
2022-11-16T02:43:21.059Z,12.94
2022-11-16T02:45:50.755Z,12.81
2022-11-16T02:48:23.319Z,13.03
2022-11-16T02:50:52.763Z,12.62
2022-11-16T02:53:24.352Z,12.38
2022-11-16T02:55:51.363Z,12.57
2022-11-16T02:58:24.487Z,12.49
2022-11-16T03:01:08.733Z,12.61
2022-11-16T03:03:38.739Z,12.54
2022-11-16T03:06:11.435Z,12.57
2022-11-16T03:08:41.920Z,12.67
2022-11-16T03:11:29.109Z,12.87
2022-11-16T03:13:59.279Z,13.21
2022-11-16T03:16:36.599Z,12.97
2022-11-16T03:19:07.452Z,12.77
2022-11-16T03:21:41.106Z,13.16
2022-11-16T03:24:08.177Z,12.93
2022-11-16T03:27:00.928Z,12.34
2022-11-16T03:29:33.281Z,12.86
2022-11-16T03:32:10.018Z,12.93
2022-11-16T03:34:38.407Z,12.14
2022-11-16T03:37:06.893Z,12.51
2022-11-16T03:39:37.118Z,12.43
2022-11-16T03:42:11.013Z,12.77
2022-11-16T03:44:38.632Z,13.11
2022-11-16T03:47:05.112Z,12.48
2022-11-16T03:49:31.726Z,12.57
2022-11-16T03:51:58.673Z,12.54
2022-11-16T03:54:25.321Z,13.01
2022-11-16T03:56:51.801Z,12.98
2022-11-16T03:59:18.295Z,13.09
2022-11-16T04:01:45.155Z,13.22
2022-11-16T04:04:32.065Z,12.59
2022-11-16T04:07:17.389Z,13.19
2022-11-16T04:10:02.568Z,13.28
2022-11-16T04:12:47.728Z,13.17
2022-11-16T04:15:32.624Z,13.26
2022-11-16T04:18:17.655Z,12.86
2022-11-16T04:21:03.214Z,12.49
2022-11-16T04:23:48.580Z,12.94
2022-11-16T04:26:15.502Z,13.17
2022-11-16T04:28:42.163Z,12.98
2022-11-16T04:31:27.445Z,12.54
2022-11-16T04:34:12.576Z,12.65
2022-11-16T04:36:57.758Z,13.07
2022-11-16T04:39:24.268Z,12.95
2022-11-16T04:42:09.608Z,12.99
2022-11-16T04:44:54.710Z,13.13
2022-11-16T04:47:21.194Z,13.36
2022-11-16T04:49:47.676Z,13.05
2022-11-16T04:52:14.109Z,13.33
2022-11-16T04:54:40.582Z,12.97
2022-11-16T04:57:07.127Z,12.91
2022-11-16T04:59:33.577Z,13.35
2022-11-16T05:02:09.110Z,13.08
2022-11-16T05:04:44.749Z,13.11
2022-11-16T05:07:13.620Z,13.05
2022-11-16T05:09:46.383Z,13.06
2022-11-16T05:12:19.575Z,12.95
2022-11-16T05:14:46.241Z,12.95
2022-11-16T05:17:13.924Z,12.92
2022-11-16T05:19:59.064Z,13.05
2022-11-16T05:22:25.947Z,12.85
2022-11-16T05:24:52.934Z,12.96
2022-11-16T05:27:21.499Z,13.26
2022-11-16T05:29:49.633Z,13.12
2022-11-16T05:32:16.720Z,13.05
2022-11-16T05:34:43.232Z,12.91
2022-11-16T05:37:10.034Z,13.06
2022-11-16T05:39:36.673Z,13.23
2022-11-16T05:42:03.652Z,12.82
2022-11-16T05:44:32.852Z,13.22
2022-11-16T05:46:59.681Z,13.07
2022-11-16T05:49:26.460Z,12.94
2022-11-16T05:51:52.966Z,13.21
2022-11-16T05:54:21.722Z,13.09
2022-11-16T05:56:49.346Z,13.23
2022-11-16T05:59:18.134Z,13.29
2022-11-16T06:01:45.172Z,13.48
2022-11-16T06:04:12.276Z,13.03
2022-11-16T06:06:38.740Z,13.47
2022-11-16T06:09:06.197Z,13.05
2022-11-16T06:11:35.934Z,13.37
2022-11-16T06:14:03.122Z,13.25
2022-11-16T06:16:29.634Z,13.49
2022-11-16T06:18:56.180Z,13.36
2022-11-16T06:21:22.889Z,13.30
2022-11-16T06:23:49.448Z,13.58
2022-11-16T06:26:15.949Z,13.26
2022-11-16T06:28:42.558Z,13.41
2022-11-16T06:31:09.157Z,13.34
2022-11-16T06:33:35.738Z,13.61
2022-11-16T06:36:02.276Z,13.49
2022-11-16T06:38:28.999Z,13.68
2022-11-16T06:40:57.792Z,12.93
2022-11-16T06:43:25.475Z,13.33
2022-11-16T06:45:54.637Z,13.48
2022-11-16T06:48:22.497Z,13.27
2022-11-16T06:50:49.853Z,13.17
2022-11-16T06:53:17.125Z,13.18
2022-11-16T06:55:43.620Z,12.95
2022-11-16T06:58:12.906Z,13.40
2022-11-16T07:00:39.443Z,13.24
2022-11-16T07:03:06.009Z,13.60
2022-11-16T07:05:33.075Z,13.52
2022-11-16T07:07:59.607Z,13.15
2022-11-16T07:10:26.220Z,13.31
2022-11-16T07:12:52.763Z,13.25
2022-11-16T07:15:19.545Z,13.43
2022-11-16T07:17:46.301Z,13.36
2022-11-16T07:20:13.153Z,13.64
2022-11-16T07:22:39.678Z,13.44
2022-11-16T07:25:06.827Z,13.23
2022-11-16T07:27:33.269Z,13.42
2022-11-16T07:30:01.940Z,13.63
2022-11-16T07:32:30.730Z,13.58
2022-11-16T07:34:59.463Z,13.62
2022-11-16T07:37:26.466Z,13.58
2022-11-16T07:39:53.090Z,13.27
2022-11-16T07:42:20.276Z,13.20
2022-11-16T07:44:46.803Z,13.46
2022-11-16T07:47:13.321Z,13.28
2022-11-16T07:49:40.026Z,13.39
2022-11-16T07:52:09.629Z,13.34
2022-11-16T07:54:36.712Z,13.56
2022-11-16T07:57:03.285Z,13.86
2022-11-16T07:59:29.773Z,13.80
2022-11-16T08:01:56.538Z,14.50
2022-11-16T08:04:23.271Z,14.52
2022-11-16T08:06:51.603Z,14.25
2022-11-16T08:09:18.299Z,14.01
2022-11-16T08:11:44.788Z,14.06
2022-11-16T08:14:12.686Z,13.72
2022-11-16T08:16:39.218Z,14.13
2022-11-16T08:19:05.825Z,14.32
2022-11-16T08:21:32.283Z,14.19
2022-11-16T08:23:59.152Z,14.14
2022-11-16T08:26:26.351Z,13.91
2022-11-16T08:28:53.853Z,13.82
2022-11-16T08:31:23.952Z,14.17
2022-11-16T08:33:51.966Z,14.19
2022-11-16T08:36:19.148Z,14.41
2022-11-16T08:38:47.658Z,14.45
2022-11-16T08:41:15.215Z,14.48
2022-11-16T08:43:41.901Z,14.80
2022-11-16T08:46:09.903Z,14.47
2022-11-16T08:48:37.511Z,14.54
2022-11-16T08:51:22.248Z,14.58
2022-11-16T08:53:49.736Z,14.49
2022-11-16T08:56:18.180Z,14.44
2022-11-16T08:58:46.940Z,14.63
2022-11-16T09:01:19.942Z,14.28
2022-11-16T09:03:47.192Z,13.93
2022-11-16T09:06:14.436Z,14.36
2022-11-16T09:08:43.640Z,13.94
2022-11-16T09:11:13.211Z,14.43
2022-11-16T09:13:40.062Z,15.68
2022-11-16T09:16:06.761Z,15.01
2022-11-16T09:18:43.213Z,16.14
2022-11-16T09:21:09.811Z,17.04
2022-11-16T09:23:36.552Z,17.52
2022-11-16T09:26:04.933Z,18.36
2022-11-16T09:28:32.221Z,17.16
2022-11-16T09:31:04.237Z,16.47
2022-11-16T09:33:31.749Z,16.12
2022-11-16T09:36:09.280Z,15.92
2022-11-16T09:39:13.896Z,15.44
2022-11-16T09:41:59.304Z,15.84
2022-11-16T09:44:54.144Z,16.35
2022-11-16T09:47:23.445Z,15.88
2022-11-16T09:49:58.372Z,15.52
2022-11-16T09:52:36.582Z,16.65
2022-11-16T09:55:25.520Z,16.88
2022-11-16T09:57:55.419Z,17.71
2022-11-16T10:00:23.680Z,18.27
2022-11-16T10:03:05.345Z,18.00
2022-11-16T10:06:10.448Z,18.85
2022-11-16T10:08:46.670Z,18.85
2022-11-16T10:11:39.025Z,19.12
2022-11-16T10:14:25.938Z,19.30
2022-11-16T10:17:09.916Z,18.12
2022-11-16T10:19:51.487Z,18.18
2022-11-16T10:22:29.977Z,18.35
2022-11-16T10:24:58.468Z,19.59
2022-11-16T10:27:44.435Z,19.75
2022-11-16T10:30:15.806Z,19.67
2022-11-16T10:33:08.077Z,18.89
2022-11-16T10:35:41.357Z,17.99
2022-11-16T10:38:17.108Z,17.25
2022-11-16T10:40:49.550Z,17.66
2022-11-16T10:43:18.758Z,17.37
2022-11-16T10:46:05.184Z,17.38
2022-11-16T10:48:41.181Z,16.02
2022-11-16T10:51:09.493Z,17.08
2022-11-16T10:53:38.386Z,16.07
2022-11-16T10:56:34.240Z,15.72
2022-11-16T10:59:04.390Z,15.99
2022-11-16T11:02:01.307Z,15.73
2022-11-16T11:04:30.325Z,15.81
2022-11-16T11:07:02.386Z,15.79
2022-11-16T11:09:33.290Z,15.69
2022-11-16T11:12:19.625Z,15.76
2022-11-16T11:15:01.489Z,15.77
2022-11-16T11:17:29.830Z,15.32
2022-11-16T11:20:06.135Z,15.60
2022-11-16T11:22:35.059Z,14.88
2022-11-16T11:25:03.485Z,14.98
2022-11-16T11:27:33.968Z,15.24
2022-11-16T11:30:01.459Z,15.51
2022-11-16T11:32:35.104Z,15.95
2022-11-16T11:35:03.542Z,16.22
2022-11-16T11:37:34.549Z,15.75
2022-11-16T11:40:18.702Z,15.83
2022-11-16T11:42:58.615Z,16.13
2022-11-16T11:45:31.894Z,16.52
2022-11-16T11:48:08.007Z,16.40
2022-11-16T11:50:54.201Z,16.86
2022-11-16T11:53:37.112Z,15.72
2022-11-16T11:56:04.231Z,15.47
2022-11-16T11:58:33.911Z,15.23
2022-11-16T12:01:34.048Z,15.33
2022-11-16T12:04:38.407Z,15.79
2022-11-16T12:07:23.546Z,15.71
2022-11-16T12:10:20.447Z,16.22
2022-11-16T12:13:06.027Z,15.39
2022-11-16T12:15:49.395Z,15.43
2022-11-16T12:18:35.158Z,15.23
2022-11-16T12:21:27.521Z,15.14
2022-11-16T12:24:07.650Z,15.18
2022-11-16T12:26:58.387Z,14.80
2022-11-16T12:29:49.022Z,14.45
2022-11-16T12:32:18.559Z,14.54
2022-11-16T12:35:00.208Z,14.11
2022-11-16T12:37:40.436Z,14.18
2022-11-16T12:40:06.860Z,14.00
2022-11-16T12:43:06.996Z,14.17
2022-11-16T12:45:51.354Z,14.58
2022-11-16T12:48:39.071Z,15.20
2022-11-16T12:51:30.488Z,15.33
2022-11-16T12:54:15.564Z,14.82
2022-11-16T12:56:48.849Z,15.16
2022-11-16T12:59:36.756Z,15.27
2022-11-16T13:02:35.996Z,15.24
2022-11-16T13:05:13.185Z,15.48
2022-11-16T13:07:45.915Z,15.00
2022-11-16T13:10:22.726Z,15.50
2022-11-16T13:12:55.812Z,15.43
2022-11-16T13:15:40.153Z,15.39
2022-11-16T13:18:13.085Z,15.66
2022-11-16T13:20:42.623Z,15.57
2022-11-16T13:23:13.221Z,15.04
2022-11-16T13:25:52.648Z,15.60
2022-11-16T13:28:40.335Z,16.06
2022-11-16T13:31:21.439Z,17.02
2022-11-16T13:33:52.604Z,16.76
2022-11-16T13:36:39.239Z,17.49
2022-11-16T13:39:08.126Z,16.98
2022-11-16T13:41:36.001Z,16.26
2022-11-16T13:44:22.733Z,16.08
2022-11-16T13:46:56.290Z,16.04
2022-11-16T13:49:29.336Z,15.58
2022-11-16T13:52:23.835Z,15.29
2022-11-16T13:54:54.530Z,15.73
2022-11-16T13:57:34.822Z,16.17
2022-11-16T14:00:01.399Z,16.59
2022-11-16T14:02:36.076Z,16.49
2022-11-16T14:05:04.852Z,16.15
2022-11-16T14:07:50.573Z,15.98
2022-11-16T14:10:35.758Z,15.55
2022-11-16T14:13:04.394Z,15.85
2022-11-16T14:15:36.118Z,15.91
2022-11-16T14:18:32.260Z,15.94
2022-11-16T14:21:07.091Z,15.32
2022-11-16T14:23:55.577Z,15.72
2022-11-16T14:26:59.205Z,15.81
2022-11-16T14:29:53.556Z,14.99
2022-11-16T14:32:31.091Z,15.63
2022-11-16T14:35:00.522Z,15.69
2022-11-16T14:37:29.960Z,15.22
2022-11-16T14:40:13.942Z,15.47
2022-11-16T14:43:15.405Z,15.34
2022-11-16T14:45:38.715Z,15.22
2022-11-16T14:48:17.105Z,15.44
2022-11-16T14:51:06.270Z,15.21
2022-11-16T14:53:36.573Z,15.36
2022-11-16T14:56:07.858Z,15.30
2022-11-16T14:58:35.747Z,15.27
2022-11-16T15:01:05.320Z,15.62
2022-11-16T15:03:37.153Z,15.61
2022-11-16T15:06:06.400Z,15.53
2022-11-16T15:08:55.740Z,15.75
2022-11-16T15:11:49.640Z,15.75
2022-11-16T15:14:39.997Z,15.20
2022-11-16T15:17:22.353Z,14.82
2022-11-16T15:20:02.658Z,14.65
2022-11-16T15:22:32.449Z,14.46
2022-11-16T15:25:01.374Z,14.16
2022-11-16T15:27:27.927Z,14.73
2022-11-16T15:29:54.524Z,14.99
2022-11-16T15:32:21.228Z,14.80
2022-11-16T15:34:52.793Z,14.99
2022-11-16T15:37:30.285Z,14.97
2022-11-16T15:39:59.012Z,14.73
2022-11-16T15:42:28.068Z,14.45
2022-11-16T15:44:55.590Z,14.29
2022-11-16T15:47:23.159Z,14.49
2022-11-16T15:49:52.757Z,13.84
2022-11-16T15:52:55.178Z,14.13
2022-11-16T15:55:28.647Z,13.60
2022-11-16T15:58:26.293Z,13.90
2022-11-16T16:00:54.420Z,14.36
2022-11-16T16:03:27.288Z,14.38
2022-11-16T16:05:55.276Z,14.46
2022-11-16T16:08:38.050Z,14.30
2022-11-16T16:11:27.070Z,14.16
2022-11-16T16:14:02.030Z,13.42
2022-11-16T16:16:36.832Z,13.20
2022-11-16T16:19:09.812Z,13.35
2022-11-16T16:21:45.313Z,13.61
2022-11-16T16:24:46.637Z,13.95
2022-11-16T16:27:19.242Z,13.67
2022-11-16T16:29:50.944Z,13.52
2022-11-16T16:32:28.742Z,13.72
2022-11-16T16:35:00.508Z,13.81
2022-11-16T16:37:28.818Z,13.34
2022-11-16T16:39:55.517Z,13.55
2022-11-16T16:42:22.103Z,13.66
2022-11-16T16:44:49.289Z,13.81
2022-11-16T16:47:16.923Z,13.42
2022-11-16T16:49:43.472Z,13.48
2022-11-16T16:52:12.355Z,13.67
2022-11-16T16:54:39.474Z,13.57
2022-11-16T16:57:06.085Z,14.00
2022-11-16T16:59:32.668Z,13.55
2022-11-16T17:01:59.779Z,13.47
2022-11-16T17:04:26.502Z,13.17
2022-11-16T17:06:53.425Z,13.38
2022-11-16T17:09:20.373Z,13.27
2022-11-16T17:11:47.782Z,13.14
2022-11-16T17:14:14.367Z,12.99
2022-11-16T17:16:40.900Z,13.03
2022-11-16T17:19:07.390Z,12.89
2022-11-16T17:21:33.951Z,13.02
2022-11-16T17:24:00.508Z,13.30
2022-11-16T17:26:29.334Z,13.11
2022-11-16T17:28:57.418Z,13.22
2022-11-16T17:31:25.563Z,13.14
2022-11-16T17:33:52.583Z,13.32
2022-11-16T17:36:20.373Z,13.11
2022-11-16T17:38:46.890Z,13.06
2022-11-16T17:41:18.407Z,12.89
2022-11-16T17:43:46.120Z,13.07
2022-11-16T17:46:23.731Z,13.17
2022-11-16T17:48:50.790Z,13.26
2022-11-16T17:51:19.973Z,13.10
2022-11-16T17:53:46.793Z,13.07
2022-11-16T17:56:15.443Z,13.11
2022-11-16T17:58:42.555Z,13.15
2022-11-16T18:01:09.168Z,13.24
2022-11-16T18:03:37.081Z,13.13
2022-11-16T18:06:09.210Z,13.26
2022-11-16T18:08:36.764Z,13.27
2022-11-16T18:11:09.567Z,13.35
2022-11-16T18:13:37.166Z,13.18
2022-11-16T18:16:04.920Z,13.12
2022-11-16T18:18:32.218Z,13.11
2022-11-16T18:21:00.232Z,13.37
2022-11-16T18:23:27.596Z,13.06
2022-11-16T18:25:54.912Z,12.98
2022-11-16T18:28:22.262Z,13.19
2022-11-16T18:30:48.762Z,13.31
2022-11-16T18:33:16.348Z,13.19
2022-11-16T18:35:44.034Z,13.60
2022-11-16T18:38:13.400Z,13.58
2022-11-16T18:40:42.569Z,13.56
2022-11-16T18:43:12.941Z,13.14
2022-11-16T18:45:39.469Z,13.12
2022-11-16T18:48:06.086Z,13.27
2022-11-16T18:50:32.550Z,13.52
2022-11-16T18:52:59.072Z,13.46
2022-11-16T18:55:25.615Z,13.57
2022-11-16T18:57:52.100Z,13.35
2022-11-16T19:00:19.408Z,13.36
2022-11-16T19:02:46.023Z,13.42
2022-11-16T19:05:12.577Z,13.41
2022-11-16T19:07:39.233Z,13.32
2022-11-16T19:10:06.345Z,13.38
2022-11-16T19:12:32.809Z,13.03
2022-11-16T19:14:59.499Z,13.52
2022-11-16T19:17:26.976Z,13.38
2022-11-16T19:19:53.545Z,13.56
2022-11-16T19:22:20.450Z,13.86
2022-11-16T19:24:46.906Z,13.45
2022-11-16T19:27:13.846Z,13.83
2022-11-16T19:29:40.629Z,13.79
2022-11-16T19:32:07.143Z,13.55
2022-11-16T19:34:33.750Z,13.42
2022-11-16T19:37:00.343Z,13.36
2022-11-16T19:39:26.961Z,13.36
2022-11-16T19:41:53.442Z,13.35
2022-11-16T19:44:20.028Z,13.24
2022-11-16T19:46:46.620Z,13.07
2022-11-16T19:49:20.026Z,12.85
2022-11-16T19:51:47.404Z,12.82
2022-11-16T19:54:14.836Z,13.03
2022-11-16T19:56:42.477Z,12.98
2022-11-16T19:59:09.645Z,13.19
2022-11-16T20:01:36.247Z,13.36
2022-11-16T20:04:04.279Z,13.42
2022-11-16T20:06:33.816Z,13.43
2022-11-16T20:09:04.058Z,13.34
2022-11-16T20:11:34.020Z,13.55
2022-11-16T20:14:01.822Z,13.48
2022-11-16T20:16:38.750Z,13.10
2022-11-16T20:19:07.780Z,13.09
2022-11-16T20:21:39.794Z,12.96
2022-11-16T20:24:08.838Z,12.91
2022-11-16T20:26:37.164Z,13.40
2022-11-16T20:29:03.739Z,13.27
2022-11-16T20:31:32.970Z,13.19
2022-11-16T20:34:05.135Z,12.83
2022-11-16T20:36:33.279Z,12.86
2022-11-16T20:39:00.388Z,12.68
2022-11-16T20:41:29.610Z,12.84
2022-11-16T20:43:58.081Z,12.95
2022-11-16T20:46:26.511Z,13.18
2022-11-16T20:48:53.345Z,13.31
2022-11-16T20:51:20.668Z,13.28
2022-11-16T20:53:48.634Z,12.77
2022-11-16T20:56:17.250Z,12.72
2022-11-16T20:58:43.793Z,12.55
2022-11-16T21:01:13.176Z,12.40
2022-11-16T21:03:40.394Z,12.48
2022-11-16T21:06:08.796Z,12.49
2022-11-16T21:08:36.892Z,12.80
2022-11-16T21:11:13.532Z,13.13
2022-11-16T21:13:58.644Z,12.73
2022-11-16T21:16:25.496Z,12.92
2022-11-16T21:18:54.336Z,12.67
2022-11-16T21:21:20.882Z,12.72
2022-11-16T21:23:51.687Z,12.69
2022-11-16T21:26:20.452Z,12.45
2022-11-16T21:28:46.990Z,12.60
2022-11-16T21:31:16.499Z,12.74
2022-11-16T21:33:47.304Z,12.69
2022-11-16T21:36:25.280Z,12.64
2022-11-16T21:38:52.680Z,12.56
2022-11-16T21:41:20.411Z,12.71
2022-11-16T21:43:47.085Z,12.46
2022-11-16T21:46:27.459Z,12.43
2022-11-16T21:48:56.137Z,12.70
2022-11-16T21:51:25.149Z,12.45
2022-11-16T21:53:51.828Z,12.34
2022-11-16T21:56:20.069Z,12.44
2022-11-16T21:58:46.912Z,12.45
2022-11-16T22:01:15.841Z,12.69
2022-11-16T22:03:42.743Z,12.76
2022-11-16T22:06:48.936Z,12.92
2022-11-16T22:09:16.740Z,12.82
2022-11-16T22:11:43.289Z,12.84
2022-11-16T22:14:09.824Z,12.79
2022-11-16T22:16:36.310Z,13.18
2022-11-16T22:19:02.775Z,13.16
2022-11-16T22:21:29.224Z,12.55
2022-11-16T22:23:55.705Z,12.63
2022-11-16T22:26:22.360Z,12.95
2022-11-16T22:28:50.648Z,12.84
2022-11-16T22:31:17.217Z,12.68
2022-11-16T22:33:43.714Z,12.63
2022-11-16T22:36:10.842Z,12.81
2022-11-16T22:38:37.599Z,12.79
2022-11-16T22:41:04.343Z,12.67
2022-11-16T22:43:31.600Z,12.90
2022-11-16T22:45:59.842Z,12.86
2022-11-16T22:48:31.055Z,13.13
2022-11-16T22:51:21.033Z,12.73
2022-11-16T22:53:47.941Z,12.89
2022-11-16T22:56:14.515Z,12.63
2022-11-16T22:58:41.018Z,12.80
2022-11-16T23:01:09.147Z,13.15
2022-11-16T23:03:36.989Z,12.69
2022-11-16T23:06:05.249Z,12.75
2022-11-16T23:08:32.975Z,12.82
2022-11-16T23:11:37.925Z,12.70
2022-11-16T23:14:24.263Z,12.77
2022-11-16T23:16:51.614Z,12.63
2022-11-16T23:19:38.260Z,12.69
2022-11-16T23:22:24.528Z,12.71
2022-11-16T23:25:09.646Z,12.49
2022-11-16T23:27:44.767Z,12.73
2022-11-16T23:30:13.320Z,12.73
2022-11-16T23:32:41.346Z,12.81
2022-11-16T23:35:09.185Z,12.85
2022-11-16T23:37:52.935Z,13.00
2022-11-16T23:40:19.934Z,12.84
2022-11-16T23:43:05.074Z,12.60
2022-11-16T23:45:31.606Z,12.79
2022-11-16T23:47:58.080Z,12.85
2022-11-16T23:50:24.610Z,12.85
2022-11-16T23:52:51.103Z,12.73
2022-11-16T23:55:17.613Z,12.42
2022-11-16T23:57:44.143Z,12.59
